Terminal Aerodrome Forecast
Issued by NWS

Home | Current Version | Previous Version | Text Only | Print | Product List | Glossary Off
Versions: 1 2 3 4 5 6 7 8 9 10 11 12 13 14 15

000
FTUS43 KMPX 302000 AAA
TAFRWF
TAF AMD
KRWF 302053Z 3021/3118 34014G22KT P6SM BKN025
     FM310100 34017G24KT P6SM SCT025 BKN035
     FM310500 34012KT P6SM SKC
     FM311200 36006KT P6SM SKC=

USA.gov is the U.S. government's official web portal to all federal, state and local government web resources and services.